createdAt,value
2022-10-26T00:02:31.209Z,1.30
2022-10-26T00:05:34.186Z,1.42
2022-10-26T00:08:36.133Z,1.30
2022-10-26T00:11:37.694Z,1.50
2022-10-26T00:14:39.315Z,1.33
2022-10-26T00:17:40.880Z,1.40
2022-10-26T00:20:42.502Z,1.25
2022-10-26T00:23:44.535Z,1.45
2022-10-26T00:26:47.495Z,1.40
2022-10-26T00:29:49.088Z,1.20
2022-10-26T00:32:50.690Z,1.60
2022-10-26T00:35:55.510Z,1.40
2022-10-26T00:38:58.096Z,1.23
2022-10-26T00:41:59.663Z,1.30
2022-10-26T00:45:16.478Z,1.33
2022-10-26T00:48:30.382Z,1.38
2022-10-26T00:51:52.014Z,1.30
2022-10-26T00:54:54.324Z,1.20
2022-10-26T00:57:56.068Z,1.20
2022-10-26T01:00:57.831Z,1.27
2022-10-26T01:04:00.753Z,1.30
2022-10-26T01:07:04.209Z,1.40
2022-10-26T01:10:07.245Z,1.60
2022-10-26T01:13:10.636Z,1.40
2022-10-26T01:16:38.388Z,1.30
2022-10-26T01:20:06.629Z,1.40
2022-10-26T01:23:20.798Z,1.20
2022-10-26T01:26:46.501Z,1.80
2022-10-26T01:30:12.753Z,1.60
2022-10-26T01:33:26.555Z,1.70
2022-10-26T01:36:43.985Z,1.63
2022-10-26T01:39:53.719Z,1.60
2022-10-26T01:42:59.293Z,1.58
2022-10-26T01:46:03.953Z,1.70
2022-10-26T01:49:12.023Z,1.48
2022-10-26T01:52:13.634Z,1.50
2022-10-26T01:55:43.597Z,1.67
2022-10-26T01:58:48.140Z,1.48
2022-10-26T02:01:50.940Z,1.60
2022-10-26T02:05:16.314Z,2.13
2022-10-26T02:08:33.199Z,1.50
2022-10-26T02:11:48.556Z,1.38
2022-10-26T02:14:58.521Z,1.58
2022-10-26T02:18:09.488Z,1.45
2022-10-26T02:21:16.025Z,1.70
2022-10-26T02:24:18.462Z,1.30
2022-10-26T02:27:27.601Z,1.50
2022-10-26T02:30:29.504Z,1.63
2022-10-26T02:33:35.044Z,1.50
2022-10-26T02:36:42.079Z,1.67
2022-10-26T02:39:46.896Z,1.60
2022-10-26T02:42:51.041Z,1.90
2022-10-26T02:45:57.523Z,1.80
2022-10-26T02:48:59.317Z,1.50
2022-10-26T02:52:06.915Z,1.60
2022-10-26T02:55:15.135Z,1.73
2022-10-26T02:58:25.667Z,1.58
2022-10-26T03:01:28.829Z,1.60
2022-10-26T03:04:32.244Z,1.75
2022-10-26T03:07:33.824Z,1.70
2022-10-26T03:10:42.552Z,1.80
2022-10-26T03:13:44.929Z,1.80
2022-10-26T03:16:47.048Z,1.77
2022-10-26T03:19:48.748Z,1.70
2022-10-26T03:22:50.361Z,1.70
2022-10-26T03:25:51.962Z,1.58
2022-10-26T03:28:53.572Z,1.77
2022-10-26T03:31:55.302Z,1.60
2022-10-26T03:34:56.883Z,1.90
2022-10-26T03:37:58.498Z,1.83
2022-10-26T03:41:00.824Z,1.65
2022-10-26T03:44:02.513Z,1.80
2022-10-26T03:47:04.174Z,1.70
2022-10-26T03:53:08.088Z,1.65
2022-10-26T03:56:09.754Z,1.73
2022-10-26T03:59:11.388Z,1.70
2022-10-26T04:02:14.291Z,1.77
2022-10-26T04:05:16.750Z,1.90
2022-10-26T04:08:18.909Z,1.90
2022-10-26T04:11:20.527Z,2.10
2022-10-26T04:14:22.328Z,1.67
2022-10-26T04:17:25.027Z,1.70
2022-10-26T04:20:27.996Z,1.67
2022-10-26T04:23:29.682Z,1.65
2022-10-26T04:26:31.483Z,1.65
2022-10-26T04:29:33.082Z,1.80
2022-10-26T04:32:34.673Z,1.80
2022-10-26T04:35:36.376Z,1.75
2022-10-26T04:38:38.205Z,1.80
2022-10-26T04:41:39.829Z,1.70
2022-10-26T04:44:41.796Z,1.77
2022-10-26T04:47:44.686Z,2.10
2022-10-26T04:50:46.355Z,1.65
2022-10-26T04:53:47.960Z,1.90
2022-10-26T04:56:50.961Z,2.00
2022-10-26T04:59:52.610Z,1.73
2022-10-26T05:03:02.419Z,2.00
2022-10-26T05:06:04.214Z,2.10
2022-10-26T05:09:06.006Z,1.90
2022-10-26T05:12:07.654Z,1.90
2022-10-26T05:15:12.018Z,1.88
2022-10-26T05:18:13.606Z,1.70
2022-10-26T05:21:19.587Z,2.13
2022-10-26T05:24:21.340Z,2.00
2022-10-26T05:27:22.960Z,1.90
2022-10-26T05:30:24.558Z,1.98
2022-10-26T05:33:26.317Z,1.65
2022-10-26T05:36:27.918Z,1.80
2022-10-26T05:39:30.018Z,2.22
2022-10-26T05:42:32.034Z,1.90
2022-10-26T05:45:33.688Z,2.25
2022-10-26T05:48:35.280Z,2.05
2022-10-26T05:51:37.301Z,2.40
2022-10-26T05:54:38.891Z,2.20
2022-10-26T05:57:41.305Z,2.28
2022-10-26T06:00:47.795Z,2.40
2022-10-26T06:04:08.302Z,2.28
2022-10-26T06:07:15.583Z,2.58
2022-10-26T06:10:17.603Z,2.40
2022-10-26T06:13:19.555Z,2.35
2022-10-26T06:16:27.462Z,2.40
2022-10-26T06:19:38.081Z,2.50
2022-10-26T06:23:05.648Z,2.15
2022-10-26T06:26:28.363Z,2.50
2022-10-26T06:29:36.200Z,2.45
2022-10-26T06:32:45.335Z,2.30
2022-10-26T06:36:07.962Z,2.22
2022-10-26T06:39:19.278Z,2.35
2022-10-26T06:42:24.650Z,2.25
2022-10-26T06:45:30.164Z,2.22
2022-10-26T06:48:43.670Z,2.60
2022-10-26T06:52:13.833Z,2.33
2022-10-26T06:55:16.404Z,2.40
2022-10-26T06:58:20.223Z,2.20
2022-10-26T07:01:21.921Z,2.08
2022-10-26T07:04:23.716Z,2.03
2022-10-26T07:07:30.483Z,2.15
2022-10-26T07:10:32.655Z,2.10
2022-10-26T07:13:34.251Z,2.33
2022-10-26T07:16:35.840Z,2.17
2022-10-26T07:19:37.770Z,2.47
2022-10-26T07:22:40.216Z,2.22
2022-10-26T07:25:42.725Z,2.60
2022-10-26T07:28:48.784Z,2.45
2022-10-26T07:34:59.068Z,2.38
2022-10-26T07:38:01.540Z,2.33
2022-10-26T07:41:03.505Z,2.30
2022-10-26T07:44:05.872Z,2.50
2022-10-26T07:47:07.756Z,2.40
2022-10-26T07:50:11.978Z,2.20
2022-10-26T07:53:13.698Z,2.33
2022-10-26T07:56:16.016Z,2.17
2022-10-26T07:59:18.368Z,1.95
2022-10-26T08:02:19.971Z,2.17
2022-10-26T08:05:21.715Z,2.30
2022-10-26T08:08:23.527Z,2.28
2022-10-26T08:11:25.210Z,1.92
2022-10-26T08:14:26.811Z,2.20
2022-10-26T08:17:29.213Z,2.30
2022-10-26T08:20:30.853Z,2.10
2022-10-26T08:23:33.379Z,2.22
2022-10-26T08:26:34.956Z,2.40
2022-10-26T08:29:36.564Z,2.80
2022-10-26T08:32:38.129Z,2.28
2022-10-26T08:35:39.740Z,3.20
2022-10-26T08:38:41.439Z,2.55
2022-10-26T08:41:45.767Z,2.50
2022-10-26T08:44:51.526Z,2.30
2022-10-26T08:47:57.560Z,2.10
2022-10-26T08:51:24.630Z,2.10
2022-10-26T08:54:40.185Z,2.30
2022-10-26T08:57:42.497Z,2.43
2022-10-26T09:00:48.690Z,2.40
2022-10-26T09:03:50.428Z,2.70
2022-10-26T09:07:10.772Z,2.35
2022-10-26T09:10:50.906Z,2.58
2022-10-26T09:14:11.175Z,2.30
2022-10-26T09:17:15.819Z,2.30
2022-10-26T09:20:26.798Z,2.40
2022-10-26T09:23:28.798Z,2.30
2022-10-26T09:26:53.599Z,1.83
2022-10-26T09:29:59.628Z,2.03
2022-10-26T09:33:15.400Z,3.20
2022-10-26T09:36:23.076Z,2.38
2022-10-26T09:40:03.478Z,2.10
2022-10-26T09:43:11.443Z,2.22
2022-10-26T09:46:18.452Z,1.95
2022-10-26T09:49:23.215Z,2.20
2022-10-26T09:52:24.957Z,1.88
2022-10-26T09:55:27.573Z,2.03
2022-10-26T09:58:36.883Z,2.40
2022-10-26T10:01:42.197Z,2.00
2022-10-26T10:04:51.973Z,2.22
2022-10-26T10:08:22.116Z,2.97
2022-10-26T10:11:37.849Z,2.13
2022-10-26T10:14:54.544Z,2.20
2022-10-26T10:17:56.470Z,2.47
2022-10-26T10:20:59.538Z,3.72
2022-10-26T10:24:01.214Z,3.22
2022-10-26T10:27:05.786Z,2.55
2022-10-26T10:30:22.511Z,2.33
2022-10-26T10:33:32.960Z,2.40
2022-10-26T10:36:34.581Z,2.30
2022-10-26T10:39:39.502Z,2.20
2022-10-26T10:42:44.098Z,1.88
2022-10-26T10:45:55.791Z,2.20
2022-10-26T10:49:06.317Z,2.13
2022-10-26T10:52:07.969Z,2.28
2022-10-26T10:55:15.650Z,2.33
2022-10-26T10:58:27.025Z,2.10
2022-10-26T11:01:40.756Z,2.10
2022-10-26T11:04:58.983Z,2.10
2022-10-26T11:08:13.108Z,2.13
2022-10-26T11:11:17.453Z,2.40
2022-10-26T11:14:38.992Z,2.30
2022-10-26T11:17:58.817Z,2.30
2022-10-26T11:21:28.186Z,2.00
2022-10-26T11:24:33.621Z,2.38
2022-10-26T11:28:02.193Z,2.20
2022-10-26T11:31:11.401Z,2.42
2022-10-26T11:34:26.191Z,2.60
2022-10-26T11:41:05.519Z,2.05
2022-10-26T11:44:07.150Z,2.10
2022-10-26T11:47:29.617Z,2.20
2022-10-26T11:50:39.501Z,2.22
2022-10-26T11:53:46.735Z,2.30
2022-10-26T11:56:52.957Z,2.17
2022-10-26T12:00:00.508Z,2.22
2022-10-26T12:03:09.308Z,2.30
2022-10-26T12:06:12.122Z,2.40
2022-10-26T12:09:20.511Z,2.30
2022-10-26T12:12:25.791Z,1.95
2022-10-26T12:19:24.833Z,2.47
2022-10-26T12:22:33.435Z,2.42
2022-10-26T12:25:35.090Z,2.30
2022-10-26T12:28:36.673Z,1.98
2022-10-26T12:31:38.351Z,2.00
2022-10-26T12:34:39.873Z,1.95
2022-10-26T12:37:41.554Z,2.10
2022-10-26T12:40:43.966Z,2.47
2022-10-26T12:43:46.420Z,2.08
2022-10-26T12:46:48.008Z,2.35
2022-10-26T12:49:58.660Z,1.95
2022-10-26T12:53:13.430Z,2.33
2022-10-26T12:56:20.123Z,2.30
2022-10-26T12:59:27.697Z,2.00
2022-10-26T13:03:06.424Z,2.00
2022-10-26T13:06:35.745Z,2.03
2022-10-26T13:09:37.648Z,1.80
2022-10-26T13:12:49.236Z,2.22
2022-10-26T13:15:56.469Z,2.05
2022-10-26T13:18:59.468Z,2.08
2022-10-26T13:22:01.514Z,2.00
2022-10-26T13:25:06.013Z,2.20
2022-10-26T13:28:29.142Z,2.38
2022-10-26T13:31:34.430Z,2.20
2022-10-26T13:34:40.600Z,2.13
2022-10-26T13:37:47.469Z,2.10
2022-10-26T13:40:50.271Z,2.30
2022-10-26T13:43:52.872Z,2.45
2022-10-26T13:46:59.720Z,2.40
2022-10-26T13:50:07.833Z,2.85
2022-10-26T13:53:43.500Z,2.40
2022-10-26T13:57:02.982Z,2.42
2022-10-26T14:00:20.829Z,2.22
2022-10-26T14:03:22.497Z,2.40
2022-10-26T14:06:37.955Z,2.63
2022-10-26T14:09:39.729Z,2.60
2022-10-26T14:12:42.583Z,2.45
2022-10-26T14:15:45.760Z,2.80
2022-10-26T14:18:49.113Z,2.63
2022-10-26T14:21:51.173Z,2.80
2022-10-26T14:24:58.173Z,2.40
2022-10-26T14:28:00.033Z,2.40
2022-10-26T14:31:22.067Z,2.70
2022-10-26T14:34:24.286Z,2.97
2022-10-26T14:37:38.517Z,2.83
2022-10-26T14:40:40.686Z,2.50
2022-10-26T14:43:43.970Z,2.75
2022-10-26T14:46:45.961Z,2.90
2022-10-26T14:49:47.970Z,2.70
2022-10-26T14:53:02.763Z,2.60
2022-10-26T14:56:16.840Z,2.90
2022-10-26T14:59:24.411Z,2.67
2022-10-26T15:02:26.634Z,2.60
2022-10-26T15:05:35.532Z,2.60
2022-10-26T15:08:56.392Z,2.53
2022-10-26T15:11:59.267Z,2.90
2022-10-26T15:15:19.420Z,2.88
2022-10-26T15:18:25.809Z,3.00
2022-10-26T15:21:47.689Z,3.08
2022-10-26T15:24:53.363Z,2.60
2022-10-26T15:28:08.057Z,2.70
2022-10-26T15:31:14.707Z,2.65
2022-10-26T15:34:16.392Z,2.45
2022-10-26T15:37:18.173Z,2.85
2022-10-26T15:40:20.473Z,2.35
2022-10-26T15:43:22.123Z,3.00
2022-10-26T15:46:29.122Z,2.90
2022-10-26T15:49:30.823Z,3.00
2022-10-26T15:52:32.709Z,3.00
2022-10-26T15:55:34.296Z,2.70
2022-10-26T15:58:36.937Z,2.80
2022-10-26T16:01:38.713Z,2.67
2022-10-26T16:04:40.504Z,2.90
2022-10-26T16:07:43.766Z,2.83
2022-10-26T16:10:46.105Z,2.67
2022-10-26T16:16:52.062Z,2.95
2022-10-26T16:19:53.836Z,2.63
2022-10-26T16:22:55.953Z,2.90
2022-10-26T16:25:58.002Z,2.80
2022-10-26T16:28:59.740Z,2.65
2022-10-26T16:32:01.609Z,2.63
2022-10-26T16:35:03.397Z,2.70
2022-10-26T16:38:05.028Z,3.30
2022-10-26T16:41:12.368Z,2.60
2022-10-26T16:44:14.200Z,2.80
2022-10-26T16:47:16.202Z,2.58
2022-10-26T16:50:21.169Z,2.65
2022-10-26T16:53:23.943Z,2.72
2022-10-26T16:56:28.455Z,2.65
2022-10-26T16:59:30.369Z,2.88
2022-10-26T17:02:32.183Z,3.10
2022-10-26T17:05:33.941Z,3.53
2022-10-26T17:08:36.208Z,2.90
2022-10-26T17:11:37.949Z,2.92
2022-10-26T17:14:39.693Z,2.28
2022-10-26T17:17:41.485Z,2.63
2022-10-26T17:20:50.780Z,2.70
2022-10-26T17:23:52.492Z,2.80
2022-10-26T17:26:54.158Z,2.92
2022-10-26T17:29:55.865Z,2.80
2022-10-26T17:32:57.504Z,2.85
2022-10-26T17:35:59.222Z,2.60
2022-10-26T17:39:01.023Z,2.60
2022-10-26T17:42:02.696Z,2.97
2022-10-26T17:45:04.616Z,2.50
2022-10-26T17:48:06.394Z,2.58
2022-10-26T17:51:12.715Z,2.70
2022-10-26T17:54:14.691Z,2.45
2022-10-26T17:57:16.368Z,2.50
2022-10-26T18:00:18.392Z,2.72
2022-10-26T18:03:20.035Z,2.63
2022-10-26T18:06:22.258Z,2.88
2022-10-26T18:09:23.889Z,2.45
2022-10-26T18:12:25.642Z,2.22
2022-10-26T18:15:27.293Z,2.63
2022-10-26T18:18:28.950Z,2.50
2022-10-26T18:21:33.013Z,2.42
2022-10-26T18:24:34.657Z,2.55
2022-10-26T18:27:36.356Z,3.13
2022-10-26T18:30:37.990Z,3.40
2022-10-26T18:33:40.255Z,3.47
2022-10-26T18:36:41.996Z,2.55
2022-10-26T18:39:43.633Z,2.83
2022-10-26T18:42:45.341Z,2.45
2022-10-26T18:45:48.038Z,2.40
2022-10-26T18:48:53.571Z,2.70
2022-10-26T18:51:55.222Z,2.85
2022-10-26T18:54:56.884Z,3.35
2022-10-26T18:57:58.479Z,3.38
2022-10-26T19:01:08.087Z,2.60
2022-10-26T19:04:11.049Z,2.40
2022-10-26T19:07:12.746Z,2.50
2022-10-26T19:10:14.379Z,2.55
2022-10-26T19:13:16.049Z,2.70
2022-10-26T19:16:40.331Z,2.22
2022-10-26T19:19:40.978Z,2.67
2022-10-26T19:22:42.678Z,2.97
2022-10-26T19:25:44.293Z,2.33
2022-10-26T19:28:47.510Z,2.45
2022-10-26T19:31:51.989Z,2.35
2022-10-26T19:34:53.589Z,2.50
2022-10-26T19:37:55.163Z,2.60
2022-10-26T19:41:11.370Z,2.60
2022-10-26T19:44:14.435Z,2.30
2022-10-26T19:47:16.810Z,2.55
2022-10-26T19:50:18.416Z,2.50
2022-10-26T19:53:21.984Z,2.45
2022-10-26T19:56:23.672Z,2.40
2022-10-26T19:59:26.762Z,2.33
2022-10-26T20:02:28.450Z,2.30
2022-10-26T20:05:30.855Z,2.38
2022-10-26T20:08:32.502Z,2.58
2022-10-26T20:11:36.552Z,2.70
2022-10-26T20:14:39.538Z,2.60
2022-10-26T20:20:47.420Z,2.60
2022-10-26T20:23:49.118Z,2.47
2022-10-26T20:26:50.944Z,2.45
2022-10-26T20:29:52.674Z,2.33
2022-10-26T20:32:56.498Z,2.60
2022-10-26T20:35:58.997Z,2.63
2022-10-26T20:39:01.030Z,2.20
2022-10-26T20:42:06.351Z,2.35
2022-10-26T20:45:25.489Z,2.73
2022-10-26T20:48:27.438Z,2.30
2022-10-26T20:52:15.732Z,2.42
2022-10-26T20:55:40.840Z,2.70
2022-10-26T20:58:50.095Z,2.40
2022-10-26T21:01:51.804Z,2.72
2022-10-26T21:04:53.636Z,2.53
2022-10-26T21:11:02.183Z,3.10
2022-10-26T21:14:05.495Z,2.50
2022-10-26T21:17:08.129Z,2.65
2022-10-26T21:20:09.994Z,2.65
2022-10-26T21:23:11.727Z,2.67
2022-10-26T21:26:13.638Z,2.45
2022-10-26T21:29:15.377Z,3.22
2022-10-26T21:32:17.074Z,2.63
2022-10-26T21:35:19.610Z,2.45
2022-10-26T21:38:21.359Z,2.30
2022-10-26T21:44:45.084Z,2.83
2022-10-26T21:47:51.268Z,2.72
2022-10-26T21:50:53.319Z,2.75
2022-10-26T21:53:55.153Z,2.80
2022-10-26T21:56:56.858Z,2.50
2022-10-26T21:59:58.529Z,2.55
2022-10-26T22:03:00.181Z,2.55
2022-10-26T22:06:02.813Z,2.88
2022-10-26T22:09:04.640Z,2.80
2022-10-26T22:12:07.871Z,2.50
2022-10-26T22:15:09.944Z,2.60
2022-10-26T22:18:11.685Z,3.00
2022-10-26T22:21:17.013Z,2.33
2022-10-26T22:24:18.693Z,2.57
2022-10-26T22:27:20.363Z,2.70
2022-10-26T22:30:21.980Z,2.60
2022-10-26T22:33:23.612Z,2.80
2022-10-26T22:36:25.672Z,2.40
2022-10-26T22:39:27.289Z,2.75
2022-10-26T22:42:28.948Z,2.90
2022-10-26T22:45:30.682Z,2.47
2022-10-26T22:48:33.488Z,2.55
2022-10-26T22:51:35.476Z,2.63
2022-10-26T22:54:37.070Z,2.50
2022-10-26T22:57:38.664Z,3.08
2022-10-26T23:00:40.451Z,2.50
2022-10-26T23:03:42.734Z,2.67
2022-10-26T23:06:44.402Z,2.40
2022-10-26T23:09:46.059Z,2.33
2022-10-26T23:12:51.379Z,2.38
2022-10-26T23:15:53.191Z,2.80
2022-10-26T23:18:55.002Z,2.70
2022-10-26T23:21:56.592Z,2.67
2022-10-26T23:24:58.246Z,2.45
2022-10-26T23:27:59.899Z,2.65
2022-10-26T23:31:01.846Z,2.60
2022-10-26T23:34:03.456Z,2.25
2022-10-26T23:37:05.077Z,3.03
2022-10-26T23:40:07.393Z,2.40
2022-10-26T23:43:09.043Z,2.17
2022-10-26T23:46:10.749Z,2.70
2022-10-26T23:49:12.460Z,2.50
2022-10-26T23:52:14.115Z,2.47
2022-10-26T23:55:16.759Z,2.85
2022-10-26T23:58:18.724Z,2.88
